createdAt,value
2019-03-28T00:02:15.421Z,101597.94
2019-03-28T00:04:48.656Z,101596.39
2019-03-28T00:07:24.224Z,101589.66
2019-03-28T00:09:58.006Z,101594.05
2019-03-28T00:12:31.131Z,101588.67
2019-03-28T00:15:05.233Z,101583.44
2019-03-28T00:17:38.997Z,101586.64
2019-03-28T00:20:12.152Z,101586.72
2019-03-28T00:23:01.494Z,101588.86
2019-03-28T00:25:35.805Z,101575.61
2019-03-28T00:28:09.663Z,101573.72
2019-03-28T00:30:44.354Z,101573.22
2019-03-28T00:33:18.566Z,101573.53
2019-03-28T00:35:51.950Z,101573.89
2019-03-28T00:38:26.171Z,101578.77
2019-03-28T00:40:59.689Z,101579.58
2019-03-28T00:43:33.702Z,101577.46
2019-03-28T00:46:07.602Z,101580.72
2019-03-28T00:48:41.842Z,101578.89
2019-03-28T00:51:19.717Z,101587.26
2019-03-28T00:53:53.561Z,101581.11
2019-03-28T00:56:27.371Z,101576.78
2019-03-28T00:59:01.896Z,101569.27
2019-03-28T01:01:35.458Z,101573.02
2019-03-28T01:04:09.418Z,101570.81
2019-03-28T01:06:42.201Z,101570.36
2019-03-28T01:09:16.230Z,101568.77
2019-03-28T01:11:49.375Z,101575.00
2019-03-28T01:14:22.937Z,101572.53
2019-03-28T01:16:56.578Z,101563.04
2019-03-28T01:19:30.758Z,101571.67
2019-03-28T01:22:03.901Z,101573.83
2019-03-28T01:24:37.598Z,101576.05
2019-03-28T01:27:11.254Z,101572.48
2019-03-28T01:29:47.077Z,101561.88
2019-03-28T01:32:21.237Z,101564.84
2019-03-28T01:34:55.494Z,101568.60
2019-03-28T01:37:29.678Z,101569.14
2019-03-28T01:40:03.248Z,101567.74
2019-03-28T01:42:37.525Z,101572.30
2019-03-28T01:45:11.082Z,101575.87
2019-03-28T01:47:44.592Z,101571.00
2019-03-28T01:50:18.798Z,101573.16
2019-03-28T01:52:53.033Z,101570.50
2019-03-28T01:55:26.291Z,101577.82
2019-03-28T01:58:00.245Z,101574.02
2019-03-28T02:00:34.575Z,101571.73
2019-03-28T02:03:08.079Z,101568.83
2019-03-28T02:05:41.148Z,101565.27
2019-03-28T02:08:16.413Z,101569.33
2019-03-28T02:10:50.290Z,101568.34
2019-03-28T02:13:25.653Z,101565.45
2019-03-28T02:15:59.964Z,101573.47
2019-03-28T02:18:34.083Z,101566.93
2019-03-28T02:21:09.569Z,101581.84
2019-03-28T02:23:45.975Z,101578.27
2019-03-28T02:26:20.108Z,101581.11
2019-03-28T02:28:52.852Z,101579.17
2019-03-28T02:31:27.300Z,101581.60
2019-03-28T02:34:01.174Z,101585.22
2019-03-28T02:36:34.629Z,101584.55
2019-03-28T02:39:08.217Z,101583.55
2019-03-28T02:41:42.301Z,101583.41
2019-03-28T02:44:16.654Z,101581.02
2019-03-28T02:46:50.872Z,101580.20
2019-03-28T02:49:25.258Z,101578.84
2019-03-28T02:51:59.173Z,101581.47
2019-03-28T02:54:33.014Z,101587.19
2019-03-28T02:57:07.702Z,101581.47
2019-03-28T02:59:42.088Z,101588.23
2019-03-28T03:02:16.887Z,101585.67
2019-03-28T03:04:51.078Z,101592.91
2019-03-28T03:07:24.232Z,101587.49
2019-03-28T03:09:57.750Z,101593.31
2019-03-28T03:12:31.960Z,101596.07
2019-03-28T03:15:06.609Z,101597.47
2019-03-28T03:17:40.001Z,101593.81
2019-03-28T03:20:13.887Z,101596.38
2019-03-28T03:22:48.076Z,101595.03
2019-03-28T03:25:21.991Z,101599.27
2019-03-28T03:27:59.133Z,101596.57
2019-03-28T03:30:32.134Z,101604.56
2019-03-28T03:33:08.891Z,101600.00
2019-03-28T03:35:42.348Z,101604.88
2019-03-28T03:38:16.369Z,101601.85
2019-03-28T03:40:50.490Z,101604.23
2019-03-28T03:43:23.595Z,101610.95
2019-03-28T03:45:57.851Z,101606.45
2019-03-28T03:48:31.959Z,101610.34
2019-03-28T03:51:05.525Z,101608.18
2019-03-28T03:53:42.295Z,101618.38
2019-03-28T03:56:15.390Z,101614.93
2019-03-28T03:58:49.448Z,101616.28
2019-03-28T04:01:23.375Z,101610.36
2019-03-28T04:03:56.940Z,101612.00
2019-03-28T04:06:30.084Z,101611.95
2019-03-28T04:09:06.256Z,101612.80
2019-03-28T04:11:39.874Z,101625.96
2019-03-28T04:14:13.383Z,101616.31
2019-03-28T04:16:47.308Z,101621.74
2019-03-28T04:19:21.023Z,101622.67
2019-03-28T04:21:55.003Z,101618.19
2019-03-28T04:24:29.089Z,101616.84
2019-03-28T04:27:03.026Z,101619.50
2019-03-28T04:29:36.821Z,101615.05
2019-03-28T04:32:09.878Z,101618.61
2019-03-28T04:34:43.365Z,101622.20
2019-03-28T04:37:19.043Z,101622.27
2019-03-28T04:39:52.622Z,101628.78
2019-03-28T04:42:26.184Z,101629.63
2019-03-28T04:44:59.821Z,101627.80
2019-03-28T04:47:33.276Z,101627.30
2019-03-28T04:50:07.838Z,101626.21
2019-03-28T04:52:41.818Z,101631.13
2019-03-28T04:55:14.675Z,101628.72
2019-03-28T04:57:50.395Z,101629.33
2019-03-28T05:00:23.759Z,101629.94
2019-03-28T05:03:00.102Z,101631.03
2019-03-28T05:05:33.649Z,101632.98
2019-03-28T05:08:09.934Z,101629.23
2019-03-28T05:10:43.680Z,101628.16
2019-03-28T05:13:16.410Z,101633.03
2019-03-28T05:15:49.538Z,101634.92
2019-03-28T05:18:23.629Z,101637.13
2019-03-28T05:20:58.931Z,101642.80
2019-03-28T05:23:32.787Z,101633.57
2019-03-28T05:26:08.430Z,101636.78
2019-03-28T05:28:42.367Z,101633.53
2019-03-28T05:31:17.882Z,101641.34
2019-03-28T05:33:51.508Z,101641.65
2019-03-28T05:36:25.160Z,101644.05
2019-03-28T05:38:58.332Z,101637.56
2019-03-28T05:41:32.210Z,101635.39
2019-03-28T05:44:05.401Z,101633.30
2019-03-28T05:46:40.970Z,101640.91
2019-03-28T05:49:16.081Z,101645.17
2019-03-28T05:51:49.754Z,101654.09
2019-03-28T05:54:23.234Z,101651.28
2019-03-28T05:56:56.821Z,101651.93
2019-03-28T05:59:30.750Z,101659.84
2019-03-28T06:02:03.802Z,101654.77
2019-03-28T06:04:38.742Z,101657.48
2019-03-28T06:07:12.957Z,101657.81
2019-03-28T06:09:46.948Z,101659.16
2019-03-28T06:12:21.186Z,101674.29
2019-03-28T06:14:53.928Z,101681.22
2019-03-28T06:17:28.525Z,101675.75
2019-03-28T06:20:02.397Z,101683.55
2019-03-28T06:22:36.288Z,101683.85
2019-03-28T06:25:12.448Z,101679.55
2019-03-28T06:27:46.475Z,101684.94
2019-03-28T06:30:21.828Z,101680.41
2019-03-28T06:32:58.720Z,101689.34
2019-03-28T06:35:31.295Z,101684.25
2019-03-28T06:38:06.430Z,101688.61
2019-03-28T06:40:40.489Z,101693.27
2019-03-28T06:43:13.662Z,101691.75
2019-03-28T06:45:46.761Z,101698.97
2019-03-28T06:48:20.733Z,101698.75
2019-03-28T06:50:54.123Z,101693.63
2019-03-28T06:53:27.904Z,101697.61
2019-03-28T06:56:01.025Z,101691.43
2019-03-28T06:58:35.362Z,101694.59
2019-03-28T07:01:09.614Z,101697.28
2019-03-28T07:03:43.482Z,101698.32
2019-03-28T07:06:19.219Z,101700.39
2019-03-28T07:08:53.122Z,101699.10
2019-03-28T07:11:28.438Z,101695.89
2019-03-28T07:14:02.376Z,101700.68
2019-03-28T07:16:36.895Z,101701.69
2019-03-28T07:19:10.057Z,101709.14
2019-03-28T07:21:44.409Z,101707.84
2019-03-28T07:24:18.628Z,101701.62
2019-03-28T07:26:52.493Z,101699.62
2019-03-28T07:29:27.870Z,101692.43
2019-03-28T07:32:01.072Z,101690.95
2019-03-28T07:34:35.369Z,101697.47
2019-03-28T07:37:09.008Z,101691.33
2019-03-28T07:39:43.155Z,101694.52
2019-03-28T07:42:17.157Z,101691.71
2019-03-28T07:44:50.922Z,101691.88
2019-03-28T07:47:25.235Z,101695.00
2019-03-28T07:50:01.102Z,101694.81
2019-03-28T07:52:34.885Z,101696.47
2019-03-28T07:55:09.720Z,101702.65
2019-03-28T07:57:43.345Z,101705.30
2019-03-28T08:00:17.419Z,101703.95
2019-03-28T08:02:51.500Z,101709.47
2019-03-28T08:05:24.665Z,101700.92
2019-03-28T08:08:00.385Z,101702.78
2019-03-28T08:10:33.157Z,101704.55
2019-03-28T08:13:07.074Z,101695.66
2019-03-28T08:15:41.064Z,101694.94
2019-03-28T08:18:16.926Z,101697.16
2019-03-28T08:20:50.305Z,101704.39
2019-03-28T08:23:23.961Z,101702.53
2019-03-28T08:25:59.404Z,101702.48
2019-03-28T08:28:32.999Z,101700.26
2019-03-28T08:31:10.090Z,101708.32
2019-03-28T08:33:44.510Z,101701.14
2019-03-28T08:36:17.850Z,101701.61
2019-03-28T08:38:52.160Z,101693.76
2019-03-28T08:41:26.490Z,101698.63
2019-03-28T08:44:00.456Z,101710.12
2019-03-28T08:46:34.341Z,101709.16
2019-03-28T08:49:08.671Z,101708.13
2019-03-28T08:51:43.034Z,101705.57
2019-03-28T08:54:16.609Z,101707.63
2019-03-28T08:56:50.621Z,101702.55
2019-03-28T08:59:24.693Z,101709.19
2019-03-28T09:01:58.658Z,101709.75
2019-03-28T09:04:32.148Z,101716.88
2019-03-28T09:07:04.870Z,101712.13
2019-03-28T09:09:38.903Z,101720.73
2019-03-28T09:12:12.547Z,101723.00
2019-03-28T09:14:46.210Z,101732.89
2019-03-28T09:17:20.094Z,101730.78
2019-03-28T09:19:54.211Z,101732.79
2019-03-28T09:22:31.029Z,101732.10
2019-03-28T09:25:05.870Z,101725.82
2019-03-28T09:27:39.780Z,101728.08
2019-03-28T09:30:18.007Z,101734.16
2019-03-28T09:32:51.056Z,101743.37
2019-03-28T09:35:29.995Z,101735.92
2019-03-28T09:38:03.372Z,101745.27
2019-03-28T09:40:36.651Z,101741.09
2019-03-28T09:43:10.887Z,101736.25
2019-03-28T09:45:45.334Z,101725.95
2019-03-28T09:48:18.851Z,101727.95
2019-03-28T09:50:52.079Z,101729.42
2019-03-28T09:53:25.957Z,101717.87
2019-03-28T09:55:59.091Z,101718.58
2019-03-28T09:58:33.960Z,101728.80
2019-03-28T10:01:09.878Z,101727.33
2019-03-28T10:03:44.019Z,101725.45
2019-03-28T10:06:17.975Z,101720.25
2019-03-28T10:08:51.969Z,101714.64
2019-03-28T10:11:26.208Z,101718.62
2019-03-28T10:14:00.615Z,101716.19
2019-03-28T10:16:35.584Z,101723.39
2019-03-28T10:19:09.974Z,101723.39
2019-03-28T10:21:43.955Z,101715.67
2019-03-28T10:24:18.033Z,101703.86
2019-03-28T10:26:51.482Z,101708.85
2019-03-28T10:29:25.945Z,101708.85
2019-03-28T10:31:59.547Z,101716.61
2019-03-28T10:34:33.916Z,101714.11
2019-03-28T10:37:07.436Z,101714.11
2019-03-28T10:39:41.109Z,101725.31
2019-03-28T10:42:15.016Z,101720.85
2019-03-28T10:44:50.664Z,101730.59
2019-03-28T10:47:24.166Z,101726.55
2019-03-28T10:49:57.994Z,101734.73
2019-03-28T10:52:33.258Z,101730.41
2019-03-28T10:55:07.659Z,101732.86
2019-03-28T10:57:41.269Z,101729.83
2019-03-28T11:00:23.826Z,101732.03
2019-03-28T11:02:52.457Z,101730.86
2019-03-28T11:05:26.055Z,101736.65
2019-03-28T11:07:59.849Z,101729.20
2019-03-28T11:10:33.679Z,101731.30
2019-03-28T11:13:09.651Z,101730.84
2019-03-28T11:15:43.111Z,101736.09
2019-03-28T11:18:17.122Z,101730.73
2019-03-28T11:20:52.852Z,101734.49
2019-03-28T11:23:26.760Z,101732.34
2019-03-28T11:26:01.065Z,101729.13
2019-03-28T11:28:34.613Z,101727.26
2019-03-28T11:31:08.629Z,101736.18
2019-03-28T11:33:42.118Z,101730.81
2019-03-28T11:36:15.734Z,101736.77
2019-03-28T11:38:52.102Z,101731.92
2019-03-28T11:41:27.031Z,101733.16
2019-03-28T11:44:02.694Z,101736.28
2019-03-28T11:46:39.282Z,101742.27
2019-03-28T11:49:12.023Z,101738.21
2019-03-28T11:51:46.389Z,101743.53
2019-03-28T11:54:19.627Z,101735.37
2019-03-28T11:56:58.186Z,101734.67
2019-03-28T11:59:33.205Z,101729.58
2019-03-28T12:02:19.526Z,101734.16
2019-03-28T12:04:46.072Z,101730.11
2019-03-28T12:07:20.030Z,101734.36
2019-03-28T12:09:53.199Z,101736.55
2019-03-28T12:12:27.519Z,101733.12
2019-03-28T12:15:01.357Z,101729.03
2019-03-28T12:17:37.416Z,101728.28
2019-03-28T12:20:12.055Z,101730.35
2019-03-28T12:22:49.156Z,101727.75
2019-03-28T12:25:23.565Z,101729.72
2019-03-28T12:28:00.261Z,101735.97
2019-03-28T12:30:33.302Z,101740.66
2019-03-28T12:33:07.039Z,101738.14
2019-03-28T12:35:41.684Z,101727.62
2019-03-28T12:38:17.603Z,101731.30
2019-03-28T12:40:51.893Z,101726.06
2019-03-28T12:43:25.712Z,101726.51
2019-03-28T12:45:59.184Z,101731.52
2019-03-28T12:48:32.623Z,101728.80
2019-03-28T12:51:07.123Z,101721.55
2019-03-28T12:53:41.338Z,101724.45
2019-03-28T12:56:14.859Z,101728.17
2019-03-28T12:58:49.235Z,101720.88
2019-03-28T13:01:24.576Z,101716.45
2019-03-28T13:03:58.181Z,101720.88
2019-03-28T13:06:31.298Z,101720.83
2019-03-28T13:09:09.823Z,101721.05
2019-03-28T13:11:43.438Z,101722.75
2019-03-28T13:14:18.024Z,101715.13
2019-03-28T13:16:52.406Z,101724.59
2019-03-28T13:19:26.068Z,101718.50
2019-03-28T13:21:59.572Z,101717.69
2019-03-28T13:24:33.176Z,101718.54
2019-03-28T13:27:07.124Z,101714.87
2019-03-28T13:29:41.029Z,101721.50
2019-03-28T13:32:15.379Z,101710.63
2019-03-28T13:34:48.829Z,101714.16
2019-03-28T13:37:23.824Z,101720.28
2019-03-28T13:39:57.795Z,101718.20
2019-03-28T13:42:31.453Z,101717.23
2019-03-28T13:45:05.351Z,101722.86
2019-03-28T13:47:39.289Z,101724.33
2019-03-28T13:50:13.598Z,101716.60
2019-03-28T13:52:47.954Z,101716.66
2019-03-28T13:55:22.053Z,101719.25
2019-03-28T13:57:56.349Z,101717.78
2019-03-28T14:00:31.256Z,101717.78
2019-03-28T14:03:05.689Z,101729.43
2019-03-28T14:05:38.536Z,101723.29
2019-03-28T14:08:12.449Z,101714.39
2019-03-28T14:10:46.523Z,101721.02
2019-03-28T14:13:21.511Z,101717.78
2019-03-28T14:15:55.476Z,101709.53
2019-03-28T14:18:29.938Z,101712.66
2019-03-28T14:21:04.757Z,101713.21
2019-03-28T14:23:39.371Z,101711.63
2019-03-28T14:26:13.362Z,101710.55
2019-03-28T14:28:46.780Z,101715.36
2019-03-28T14:31:21.464Z,101707.57
2019-03-28T14:33:55.029Z,101704.50
2019-03-28T14:36:29.260Z,101703.34
2019-03-28T14:39:04.783Z,101706.64
2019-03-28T14:41:38.892Z,101703.94
2019-03-28T14:44:13.131Z,101700.42
2019-03-28T14:46:47.097Z,101696.11
2019-03-28T14:49:21.360Z,101695.75
2019-03-28T14:51:54.587Z,101698.98
2019-03-28T14:54:28.505Z,101694.87
2019-03-28T14:57:02.448Z,101693.86
2019-03-28T14:59:37.291Z,101690.91
2019-03-28T15:02:10.931Z,101688.95
2019-03-28T15:04:45.466Z,101689.36
2019-03-28T15:07:19.692Z,101685.59
2019-03-28T15:09:52.952Z,101683.98
2019-03-28T15:12:26.703Z,101675.83
2019-03-28T15:15:00.727Z,101678.55
2019-03-28T15:17:35.070Z,101678.68
2019-03-28T15:20:08.727Z,101683.95
2019-03-28T15:22:42.897Z,101676.02
2019-03-28T15:25:16.738Z,101682.39
2019-03-28T15:27:50.537Z,101683.34
2019-03-28T15:30:24.865Z,101680.31
2019-03-28T15:32:59.176Z,101670.83
2019-03-28T15:35:32.411Z,101675.14
2019-03-28T15:38:05.970Z,101683.54
2019-03-28T15:40:41.875Z,101675.34
2019-03-28T15:43:15.450Z,101674.39
2019-03-28T15:45:50.186Z,101679.09
2019-03-28T15:48:23.760Z,101672.41
2019-03-28T15:50:57.732Z,101677.72
2019-03-28T15:53:31.445Z,101677.45
2019-03-28T15:56:04.765Z,101679.36
2019-03-28T15:58:38.932Z,101684.02
2019-03-28T16:01:13.108Z,101683.78
2019-03-28T16:03:52.753Z,101677.78
2019-03-28T16:06:23.053Z,101686.75
2019-03-28T16:08:56.705Z,101685.91
2019-03-28T16:11:30.924Z,101687.06
2019-03-28T16:14:04.077Z,101683.91
2019-03-28T16:16:38.322Z,101687.83
2019-03-28T16:19:11.922Z,101691.23
2019-03-28T16:21:45.662Z,101683.95
2019-03-28T16:24:22.403Z,101686.63
2019-03-28T16:26:56.604Z,101687.98
2019-03-28T16:29:30.361Z,101690.30
2019-03-28T16:32:04.734Z,101685.55
